sensor_id;sensor_type;location;lat;lon;timestamp;pressure;altitude;pressure_sealevel;temperature;humidity
54439;BME280;40347;53.848;27.498;2024-02-16T00:04:07;1023.5;;;4.1;61.8
54439;BME280;40347;53.848;27.498;2024-02-16T00:09:25;1023.5;;;4;61.8
54439;BME280;40347;53.848;27.498;2024-02-16T00:14:07;1023.5;;;4;61.8
54439;BME280;40347;53.848;27.498;2024-02-16T00:19:35;1023.5;;;4;61.9
54439;BME280;40347;53.848;27.498;2024-02-16T00:24:25;1023.5;;;4;62
54439;BME280;40347;53.848;27.498;2024-02-16T00:29:13;1023.5;;;4;62
54439;BME280;40347;53.848;27.498;2024-02-16T00:34:25;1023.5;;;4;62.1
54439;BME280;40347;53.848;27.498;2024-02-16T00:39:21;1023.4;;;4.1;62
54439;BME280;40347;53.848;27.498;2024-02-16T00:44:07;1023.4;;;4;62.1
54439;BME280;40347;53.848;27.498;2024-02-16T00:49:33;1023.3;;;4;62.1
54439;BME280;40347;53.848;27.498;2024-02-16T00:54:23;1023.3;;;4;62.1
54439;BME280;40347;53.848;27.498;2024-02-16T00:59:33;1023.2;;;3.9;62.1
54439;BME280;40347;53.848;27.498;2024-02-16T01:04:17;1023.2;;;3.8;62.2
54439;BME280;40347;53.848;27.498;2024-02-16T01:09:07;1023.3;;;3.7;62.4
54439;BME280;40347;53.848;27.498;2024-02-16T01:14:21;1023.2;;;3.7;62.5
54439;BME280;40347;53.848;27.498;2024-02-16T01:19:07;1023.2;;;3.7;62.6
54439;BME280;40347;53.848;27.498;2024-02-16T01:24:23;1023.1;;;3.6;62.5
54439;BME280;40347;53.848;27.498;2024-02-16T01:29:35;1023.1;;;3.5;62.6
54439;BME280;40347;53.848;27.498;2024-02-16T01:34:21;1023;;;3.3;62.6
54439;BME280;40347;53.848;27.498;2024-02-16T01:39:07;1023;;;3.1;63
54439;BME280;40347;53.848;27.498;2024-02-16T01:44:07;1023;;;3;63.4
54439;BME280;40347;53.848;27.498;2024-02-16T01:49:17;1023;;;2.9;63.6
54439;BME280;40347;53.848;27.498;2024-02-16T01:54:37;1023.1;;;2.8;63.8
54439;BME280;40347;53.848;27.498;2024-02-16T01:59:07;1023.1;;;2.7;63.9
54439;BME280;40347;53.848;27.498;2024-02-16T02:04:21;1023.1;;;2.7;64.1
54439;BME280;40347;53.848;27.498;2024-02-16T02:09:15;1023.1;;;2.6;64.2
54439;BME280;40347;53.848;27.498;2024-02-16T02:14:37;1023.1;;;2.6;64.5
54439;BME280;40347;53.848;27.498;2024-02-16T02:19:07;1023.2;;;2.6;64.6
54439;BME280;40347;53.848;27.498;2024-02-16T02:24:15;1023.2;;;2.5;64.8
54439;BME280;40347;53.848;27.498;2024-02-16T02:29:33;1023.1;;;2.4;64.8
54439;BME280;40347;53.848;27.498;2024-02-16T02:34:07;1023.1;;;2.4;65
54439;BME280;40347;53.848;27.498;2024-02-16T02:39:13;1023.2;;;2.4;65.2
54439;BME280;40347;53.848;27.498;2024-02-16T02:44:31;1023.2;;;2.4;65.2
54439;BME280;40347;53.848;27.498;2024-02-16T02:49:13;1023.2;;;2.4;65.2
54439;BME280;40347;53.848;27.498;2024-02-16T02:54:07;1023.2;;;2.4;65.1
54439;BME280;40347;53.848;27.498;2024-02-16T02:59:07;1023.3;;;2.4;65.1
54439;BME280;40347;53.848;27.498;2024-02-16T03:04:25;1023.3;;;2.5;65.3
54439;BME280;40347;53.848;27.498;2024-02-16T03:09:17;1023.3;;;2.6;65.3
54439;BME280;40347;53.848;27.498;2024-02-16T03:14:13;1023.4;;;2.7;65.2
54439;BME280;40347;53.848;27.498;2024-02-16T03:19:09;1023.4;;;2.8;65.1
54439;BME280;40347;53.848;27.498;2024-02-16T03:24:07;1023.4;;;2.9;65
54439;BME280;40347;53.848;27.498;2024-02-16T03:29:07;1023.5;;;3;64.8
54439;BME280;40347;53.848;27.498;2024-02-16T03:34:25;1023.5;;;3.2;64.7
54439;BME280;40347;53.848;27.498;2024-02-16T03:39:07;1023.5;;;3.3;64.5
54439;BME280;40347;53.848;27.498;2024-02-16T03:44:07;1023.5;;;3.4;64.2
54439;BME280;40347;53.848;27.498;2024-02-16T03:49:15;1023.5;;;3.4;64.1
54439;BME280;40347;53.848;27.498;2024-02-16T03:54:08;1023.5;;;3.5;64.1
54439;BME280;40347;53.848;27.498;2024-02-16T03:59:33;1023.5;;;3.6;64.1
54439;BME280;40347;53.848;27.498;2024-02-16T04:04:25;1023.5;;;3.6;64
54439;BME280;40347;53.848;27.498;2024-02-16T04:09:07;1023.5;;;3.7;64
54439;BME280;40347;53.848;27.498;2024-02-16T04:14:07;1023.4;;;3.7;63.9
54439;BME280;40347;53.848;27.498;2024-02-16T04:19:25;1023.4;;;3.7;63.9
54439;BME280;40347;53.848;27.498;2024-02-16T04:24:21;1023.3;;;3.7;63.9
54439;BME280;40347;53.848;27.498;2024-02-16T04:29:07;1023.4;;;3.7;64
54439;BME280;40347;53.848;27.498;2024-02-16T04:34:23;1023.3;;;3.7;63.9
54439;BME280;40347;53.848;27.498;2024-02-16T04:39:17;1023.3;;;3.7;63.7
54439;BME280;40347;53.848;27.498;2024-02-16T04:44:45;1023.3;;;3.7;63.7
54439;BME280;40347;53.848;27.498;2024-02-16T04:49:17;1023.3;;;3.7;63.8
54439;BME280;40347;53.848;27.498;2024-02-16T04:54:15;1023.2;;;3.8;63.8
54439;BME280;40347;53.848;27.498;2024-02-16T04:59:08;1023.3;;;3.8;63.7
54439;BME280;40347;53.848;27.498;2024-02-16T05:04:33;1023.3;;;3.9;63.7
54439;BME280;40347;53.848;27.498;2024-02-16T05:09:25;1023.3;;;3.9;63.6
54439;BME280;40347;53.848;27.498;2024-02-16T05:14:25;1023.3;;;4;63.6
54439;BME280;40347;53.848;27.498;2024-02-16T05:19:32;1023.3;;;4;63.6
54439;BME280;40347;53.848;27.498;2024-02-16T05:24:33;1023.3;;;4;63.5
54439;BME280;40347;53.848;27.498;2024-02-16T05:29:41;1023.3;;;4;63.5
54439;BME280;40347;53.848;27.498;2024-02-16T05:34:07;1023.3;;;4.1;63.5
54439;BME280;40347;53.848;27.498;2024-02-16T05:39:15;1023.3;;;4.1;63.4
54439;BME280;40347;53.848;27.498;2024-02-16T05:44:25;1023.4;;;4.2;63.3
54439;BME280;40347;53.848;27.498;2024-02-16T05:49:07;1023.4;;;4.2;63.4
54439;BME280;40347;53.848;27.498;2024-02-16T05:54:31;1023.4;;;4.3;63.3
54439;BME280;40347;53.848;27.498;2024-02-16T05:59:13;1023.4;;;4.4;63.2
54439;BME280;40347;53.848;27.498;2024-02-16T06:04:53;1023.4;;;4.4;63
54439;BME280;40347;53.848;27.498;2024-02-16T06:09:31;1023.5;;;4.5;62.8
54439;BME280;40347;53.848;27.498;2024-02-16T06:14:35;1023.5;;;4.5;62.8
54439;BME280;40347;53.848;27.498;2024-02-16T06:19:17;1023.5;;;4.5;62.8
54439;BME280;40347;53.848;27.498;2024-02-16T06:24:23;1023.6;;;4.5;62.7
54439;BME280;40347;53.848;27.498;2024-02-16T06:29:08;1023.6;;;4.5;62.8
54439;BME280;40347;53.848;27.498;2024-02-16T06:34:17;1023.6;;;4.5;62.6
54439;BME280;40347;53.848;27.498;2024-02-16T06:39:07;1023.7;;;4.5;62.6
54439;BME280;40347;53.848;27.498;2024-02-16T06:44:07;1023.7;;;4.6;62.6
54439;BME280;40347;53.848;27.498;2024-02-16T06:49:15;1023.7;;;4.6;62.5
54439;BME280;40347;53.848;27.498;2024-02-16T06:54:07;1023.6;;;4.7;62.5
54439;BME280;40347;53.848;27.498;2024-02-16T06:59:07;1023.7;;;4.8;62.4
54439;BME280;40347;53.848;27.498;2024-02-16T07:04:21;1023.7;;;4.8;62.3
54439;BME280;40347;53.848;27.498;2024-02-16T07:09:23;1023.8;;;4.9;62.2
54439;BME280;40347;53.848;27.498;2024-02-16T07:14:13;1023.8;;;5;62.1
54439;BME280;40347;53.848;27.498;2024-02-16T07:19:25;1023.8;;;5.1;62
54439;BME280;40347;53.848;27.498;2024-02-16T07:24:33;1023.8;;;5.2;61.8
54439;BME280;40347;53.848;27.498;2024-02-16T07:29:07;1023.8;;;5.3;61.7
54439;BME280;40347;53.848;27.498;2024-02-16T07:34:33;1023.8;;;5.4;61.6
54439;BME280;40347;53.848;27.498;2024-02-16T07:39:23;1023.8;;;5.5;61.5
54439;BME280;40347;53.848;27.498;2024-02-16T07:44:13;1023.7;;;5.6;61.4
54439;BME280;40347;53.848;27.498;2024-02-16T07:49:19;1023.8;;;5.6;61.1
54439;BME280;40347;53.848;27.498;2024-02-16T07:54:07;1023.8;;;5.7;61.1
54439;BME280;40347;53.848;27.498;2024-02-16T07:59:23;1023.8;;;5.8;60.8
54439;BME280;40347;53.848;27.498;2024-02-16T08:04:07;1023.9;;;5.9;60.8
54439;BME280;40347;53.848;27.498;2024-02-16T08:09:07;1023.9;;;6;60.7
54439;BME280;40347;53.848;27.498;2024-02-16T08:14:33;1024;;;5.9;60.4
54439;BME280;40347;53.848;27.498;2024-02-16T08:19:26;1024;;;5.8;60.4
54439;BME280;40347;53.848;27.498;2024-02-16T08:24:17;1024;;;5.9;60.4
54439;BME280;40347;53.848;27.498;2024-02-16T08:29:13;1024;;;6.1;60.3
54439;BME280;40347;53.848;27.498;2024-02-16T08:34:07;1024;;;6.1;60.1
54439;BME280;40347;53.848;27.498;2024-02-16T08:39:16;1023.9;;;6.3;59.9
54439;BME280;40347;53.848;27.498;2024-02-16T08:44:17;1024;;;6.5;59.5
54439;BME280;40347;53.848;27.498;2024-02-16T08:49:21;1024;;;6.7;59.3
54439;BME280;40347;53.848;27.498;2024-02-16T08:54:25;1024;;;6.7;59.2
54439;BME280;40347;53.848;27.498;2024-02-16T08:59:07;1024.1;;;6.6;59
54439;BME280;40347;53.848;27.498;2024-02-16T09:04:07;1024.1;;;6.7;59
54439;BME280;40347;53.848;27.498;2024-02-16T09:09:22;1024;;;6.8;59
54439;BME280;40347;53.848;27.498;2024-02-16T09:14:13;1024.1;;;6.8;58.7
54439;BME280;40347;53.848;27.498;2024-02-16T09:19:31;1024.1;;;6.7;58.7
54439;BME280;40347;53.848;27.498;2024-02-16T09:24:21;1024.1;;;6.7;58.7
54439;BME280;40347;53.848;27.498;2024-02-16T09:29:45;1024.1;;;6.8;58.7
54439;BME280;40347;53.848;27.498;2024-02-16T09:34:23;1024.1;;;6.9;58.5
54439;BME280;40347;53.848;27.498;2024-02-16T09:39:25;1024.1;;;6.9;58.5
54439;BME280;40347;53.848;27.498;2024-02-16T09:44:07;1024.2;;;6.9;58.4
54439;BME280;40347;53.848;27.498;2024-02-16T09:49:25;1024.2;;;7;58.3
54439;BME280;40347;53.848;27.498;2024-02-16T09:54:07;1024.2;;;7;58.2
54439;BME280;40347;53.848;27.498;2024-02-16T09:59:25;1024.2;;;7;58.1
54439;BME280;40347;53.848;27.498;2024-02-16T10:04:08;1024.1;;;7.1;58.1
54439;BME280;40347;53.848;27.498;2024-02-16T10:09:35;1024;;;7.2;57.8
54439;BME280;40347;53.848;27.498;2024-02-16T10:14:07;1024;;;7.3;57.8
54439;BME280;40347;53.848;27.498;2024-02-16T10:19:17;1024;;;7.4;57.6
54439;BME280;40347;53.848;27.498;2024-02-16T10:24:08;1024;;;7.5;57.4
54439;BME280;40347;53.848;27.498;2024-02-16T10:29:17;1024;;;7.6;57.2
54439;BME280;40347;53.848;27.498;2024-02-16T10:34:27;1023.9;;;7.6;57.2
54439;BME280;40347;53.848;27.498;2024-02-16T10:39:13;1023.8;;;7.5;57
54439;BME280;40347;53.848;27.498;2024-02-16T10:44:23;1023.8;;;7.7;57
54439;BME280;40347;53.848;27.498;2024-02-16T10:49:43;1023.8;;;7.9;56.9
54439;BME280;40347;53.848;27.498;2024-02-16T10:54:43;1023.8;;;8;56.6
54439;BME280;40347;53.848;27.498;2024-02-16T10:59:16;1023.8;;;8.1;56.4
54439;BME280;40347;53.848;27.498;2024-02-16T11:04:08;1023.8;;;8.2;56.2
54439;BME280;40347;53.848;27.498;2024-02-16T11:09:07;1023.7;;;8.2;56.1
54439;BME280;40347;53.848;27.498;2024-02-16T11:14:17;1023.7;;;8.3;56.3
54439;BME280;40347;53.848;27.498;2024-02-16T11:19:25;1023.7;;;8.3;56
54439;BME280;40347;53.848;27.498;2024-02-16T11:24:17;1023.6;;;8.3;56
54439;BME280;40347;53.848;27.498;2024-02-16T11:29:17;1023.6;;;8.4;55.8
54439;BME280;40347;53.848;27.498;2024-02-16T11:34:07;1023.6;;;8.4;55.7
54439;BME280;40347;53.848;27.498;2024-02-16T11:39:54;1023.5;;;8.3;55.6
54439;BME280;40347;53.848;27.498;2024-02-16T11:44:25;1023.5;;;8.4;55.5
54439;BME280;40347;53.848;27.498;2024-02-16T11:49:31;1023.5;;;8.5;55.4
54439;BME280;40347;53.848;27.498;2024-02-16T11:54:27;1023.5;;;8.5;55.2
54439;BME280;40347;53.848;27.498;2024-02-16T11:59:08;1023.5;;;8.5;55.3
54439;BME280;40347;53.848;27.498;2024-02-16T12:04:22;1023.4;;;8.4;55.3
54439;BME280;40347;53.848;27.498;2024-02-16T12:09:08;1023.4;;;8.2;55.5
54439;BME280;40347;53.848;27.498;2024-02-16T12:14:16;1023.3;;;8.2;55.7
54439;BME280;40347;53.848;27.498;2024-02-16T12:19:31;1023.2;;;8.1;55.7
54439;BME280;40347;53.848;27.498;2024-02-16T12:24:35;1023.2;;;8.2;55.7
54439;BME280;40347;53.848;27.498;2024-02-16T12:29:25;1023.2;;;8.3;55.6
54439;BME280;40347;53.848;27.498;2024-02-16T12:34:15;1023.2;;;8.3;55.5
54439;BME280;40347;53.848;27.498;2024-02-16T12:39:27;1023.1;;;8.3;55.4
54439;BME280;40347;53.848;27.498;2024-02-16T12:44:07;1023;;;8.4;55.5
54439;BME280;40347;53.848;27.498;2024-02-16T12:49:07;1023;;;8.5;55.4
54439;BME280;40347;53.848;27.498;2024-02-16T12:54:15;1023;;;8.5;55.3
54439;BME280;40347;53.848;27.498;2024-02-16T12:59:33;1022.9;;;8.5;55.3
54439;BME280;40347;53.848;27.498;2024-02-16T13:04:25;1022.9;;;8.5;55.4
54439;BME280;40347;53.848;27.498;2024-02-16T13:09:07;1022.9;;;8.3;55.4
54439;BME280;40347;53.848;27.498;2024-02-16T13:14:08;1022.9;;;8;55.7
54439;BME280;40347;53.848;27.498;2024-02-16T13:19:07;1022.9;;;7.8;56.1
54439;BME280;40347;53.848;27.498;2024-02-16T13:24:25;1022.9;;;7.6;56.3
54439;BME280;40347;53.848;27.498;2024-02-16T13:29:26;1022.9;;;7.6;56.5
54439;BME280;40347;53.848;27.498;2024-02-16T13:34:08;1023;;;7.6;56.5
54439;BME280;40347;53.848;27.498;2024-02-16T13:39:21;1023;;;7.6;56.5
54439;BME280;40347;53.848;27.498;2024-02-16T13:44:33;1023;;;7.7;56.4
54439;BME280;40347;53.848;27.498;2024-02-16T13:49:07;1023;;;7.8;56.4
54439;BME280;40347;53.848;27.498;2024-02-16T13:54:15;1023;;;7.7;56.4
54439;BME280;40347;53.848;27.498;2024-02-16T13:59:21;1023;;;7.4;56.7
54439;BME280;40347;53.848;27.498;2024-02-16T14:04:31;1023.1;;;7;57.2
54439;BME280;40347;53.848;27.498;2024-02-16T14:09:13;1023.1;;;6.8;57.6
54439;BME280;40347;53.848;27.498;2024-02-16T14:14:17;1023.1;;;6.6;57.8
54439;BME280;40347;53.848;27.498;2024-02-16T14:19:08;1023.1;;;6.4;58
54439;BME280;40347;53.848;27.498;2024-02-16T14:24:35;1023;;;6.2;58.4
54439;BME280;40347;53.848;27.498;2024-02-16T14:29:17;1023;;;6;58.7
54439;BME280;40347;53.848;27.498;2024-02-16T14:34:07;1022.9;;;5.8;58.8
54439;BME280;40347;53.848;27.498;2024-02-16T14:39:07;1022.9;;;5.6;59.2
54439;BME280;40347;53.848;27.498;2024-02-16T14:44:17;1022.9;;;5.3;59.5
54439;BME280;40347;53.848;27.498;2024-02-16T14:49:08;1022.9;;;5.1;60.1
54439;BME280;40347;53.848;27.498;2024-02-16T14:54:07;1022.8;;;5;60.4
54439;BME280;40347;53.848;27.498;2024-02-16T14:59:11;1022.8;;;4.8;60.6
54439;BME280;40347;53.848;27.498;2024-02-16T15:04:41;1022.7;;;4.7;60.9
54439;BME280;40347;53.848;27.498;2024-02-16T15:09:17;1022.7;;;4.6;61
54439;BME280;40347;53.848;27.498;2024-02-16T15:14:21;1022.7;;;4.4;61.4
54439;BME280;40347;53.848;27.498;2024-02-16T15:19:16;1022.7;;;4.3;61.6
54439;BME280;40347;53.848;27.498;2024-02-16T15:24:34;1022.7;;;4.2;61.8
54439;BME280;40347;53.848;27.498;2024-02-16T15:29:26;1022.7;;;4;62.2
54439;BME280;40347;53.848;27.498;2024-02-16T15:34:45;1022.7;;;3.9;62.4
54439;BME280;40347;53.848;27.498;2024-02-16T15:39:17;1022.7;;;3.9;62.6
54439;BME280;40347;53.848;27.498;2024-02-16T15:44:15;1022.7;;;3.8;62.8
54439;BME280;40347;53.848;27.498;2024-02-16T15:49:43;1022.8;;;3.8;62.9
54439;BME280;40347;53.848;27.498;2024-02-16T15:54:07;1022.8;;;3.7;63
54439;BME280;40347;53.848;27.498;2024-02-16T15:59:13;1022.9;;;3.7;63.2
54439;BME280;40347;53.848;27.498;2024-02-16T16:04:19;1023;;;3.6;63.2
54439;BME280;40347;53.848;27.498;2024-02-16T16:09:08;1022.9;;;3.6;63.5
54439;BME280;40347;53.848;27.498;2024-02-16T16:14:08;1022.9;;;3.5;63.7
54439;BME280;40347;53.848;27.498;2024-02-16T16:19:28;1022.9;;;3.5;63.6
54439;BME280;40347;53.848;27.498;2024-02-16T16:24:07;1022.9;;;3.4;63.7
54439;BME280;40347;53.848;27.498;2024-02-16T16:29:07;1022.9;;;3.4;63.7
54439;BME280;40347;53.848;27.498;2024-02-16T16:34:26;1022.9;;;3.3;63.6
54439;BME280;40347;53.848;27.498;2024-02-16T16:39:26;1022.9;;;3.3;64
54439;BME280;40347;53.848;27.498;2024-02-16T16:44:08;1022.9;;;3.2;64.1
54439;BME280;40347;53.848;27.498;2024-02-16T16:49:16;1023;;;3.1;64
54439;BME280;40347;53.848;27.498;2024-02-16T16:54:09;1022.9;;;3.1;64
54439;BME280;40347;53.848;27.498;2024-02-16T16:59:15;1023;;;3;63.8
54439;BME280;40347;53.848;27.498;2024-02-16T17:04:28;1022.9;;;2.9;64.2
54439;BME280;40347;53.848;27.498;2024-02-16T17:09:34;1022.9;;;2.9;64.3
54439;BME280;40347;53.848;27.498;2024-02-16T17:14:22;1022.9;;;2.8;64.3
54439;BME280;40347;53.848;27.498;2024-02-16T17:19:28;1022.9;;;2.7;64.6
54439;BME280;40347;53.848;27.498;2024-02-16T17:24:13;1022.9;;;2.7;64.9
54439;BME280;40347;53.848;27.498;2024-02-16T17:29:42;1022.9;;;2.6;65
54439;BME280;40347;53.848;27.498;2024-02-16T17:34:08;1022.8;;;2.6;65
54439;BME280;40347;53.848;27.498;2024-02-16T17:39:16;1022.8;;;2.6;65.1
54439;BME280;40347;53.848;27.498;2024-02-16T17:44:36;1022.8;;;2.5;65.3
54439;BME280;40347;53.848;27.498;2024-02-16T17:49:20;1022.9;;;2.5;65.4
54439;BME280;40347;53.848;27.498;2024-02-16T17:54:36;1022.9;;;2.4;65.6
54439;BME280;40347;53.848;27.498;2024-02-16T17:59:08;1022.9;;;2.4;65.6
54439;BME280;40347;53.848;27.498;2024-02-16T18:04:08;1022.9;;;2.4;65.5
54439;BME280;40347;53.848;27.498;2024-02-16T18:09:44;1022.9;;;2.4;65.5
54439;BME280;40347;53.848;27.498;2024-02-16T18:14:26;1022.8;;;2.3;65.6
54439;BME280;40347;53.848;27.498;2024-02-16T18:19:48;1022.8;;;2.3;65.6
54439;BME280;40347;53.848;27.498;2024-02-16T18:24:26;1022.8;;;2.3;65.7
54439;BME280;40347;53.848;27.498;2024-02-16T18:29:08;1022.8;;;2.2;65.9
54439;BME280;40347;53.848;27.498;2024-02-16T18:34:08;1022.8;;;2.2;66.1
54439;BME280;40347;53.848;27.498;2024-02-16T18:39:08;1022.8;;;2.3;66.2
54439;BME280;40347;53.848;27.498;2024-02-16T18:44:26;1022.8;;;2.3;66.3
54439;BME280;40347;53.848;27.498;2024-02-16T18:49:14;1022.7;;;2.5;66
54439;BME280;40347;53.848;27.498;2024-02-16T18:54:42;1022.7;;;2.7;66
54439;BME280;40347;53.848;27.498;2024-02-16T18:59:08;1022.8;;;2.8;66
54439;BME280;40347;53.848;27.498;2024-02-16T19:04:40;1022.8;;;3;65.7
54439;BME280;40347;53.848;27.498;2024-02-16T19:09:08;1022.8;;;3.1;65.4
54439;BME280;40347;53.848;27.498;2024-02-16T19:14:26;1022.8;;;3.1;65.5
54439;BME280;40347;53.848;27.498;2024-02-16T19:19:20;1022.8;;;3.2;65.5
54439;BME280;40347;53.848;27.498;2024-02-16T19:24:46;1022.7;;;3.3;65.5
54439;BME280;40347;53.848;27.498;2024-02-16T19:29:28;1022.6;;;3.4;65.2
54439;BME280;40347;53.848;27.498;2024-02-16T19:34:26;1022.6;;;3.4;65.2
54439;BME280;40347;53.848;27.498;2024-02-16T19:39:28;1022.6;;;3.5;65.2
54439;BME280;40347;53.848;27.498;2024-02-16T19:44:38;1022.6;;;3.5;65.1
54439;BME280;40347;53.848;27.498;2024-02-16T19:49:26;1022.6;;;3.5;65.2
54439;BME280;40347;53.848;27.498;2024-02-16T19:54:26;1022.6;;;3.5;65.2
54439;BME280;40347;53.848;27.498;2024-02-16T19:59:34;1022.6;;;3.5;65.3
54439;BME280;40347;53.848;27.498;2024-02-16T20:04:32;1022.5;;;3.6;65.2
54439;BME280;40347;53.848;27.498;2024-02-16T20:09:34;1022.5;;;3.6;65.2
54439;BME280;40347;53.848;27.498;2024-02-16T20:14:22;1022.5;;;3.6;65.1
54439;BME280;40347;53.848;27.498;2024-02-16T20:19:08;1022.5;;;3.6;65.2
54439;BME280;40347;53.848;27.498;2024-02-16T20:24:08;1022.4;;;3.7;65.2
54439;BME280;40347;53.848;27.498;2024-02-16T20:29:08;1022.3;;;3.7;65.2
54439;BME280;40347;53.848;27.498;2024-02-16T20:34:36;1022.3;;;3.7;65.2
54439;BME280;40347;53.848;27.498;2024-02-16T20:39:08;1022.3;;;3.7;65.1
54439;BME280;40347;53.848;27.498;2024-02-16T20:44:08;1022.3;;;3.8;65.2
54439;BME280;40347;53.848;27.498;2024-02-16T20:49:08;1022.2;;;3.8;65.3
54439;BME280;40347;53.848;27.498;2024-02-16T20:54:56;1022.2;;;3.8;65.2
54439;BME280;40347;53.848;27.498;2024-02-16T20:59:08;1022.2;;;3.8;65.2
54439;BME280;40347;53.848;27.498;2024-02-16T21:04:08;1022.1;;;3.8;65.1
54439;BME280;40347;53.848;27.498;2024-02-16T21:09:30;1022;;;3.8;65.1
54439;BME280;40347;53.848;27.498;2024-02-16T21:14:28;1022;;;3.8;65.1
54439;BME280;40347;53.848;27.498;2024-02-16T21:19:08;1022;;;3.8;65.2
54439;BME280;40347;53.848;27.498;2024-02-16T21:24:26;1022;;;3.8;65.1
54439;BME280;40347;53.848;27.498;2024-02-16T21:29:08;1022;;;3.8;65.2
54439;BME280;40347;53.848;27.498;2024-02-16T21:34:34;1021.9;;;3.7;65.3
54439;BME280;40347;53.848;27.498;2024-02-16T21:39:32;1021.8;;;3.8;65.3
54439;BME280;40347;53.848;27.498;2024-02-16T21:44:26;1021.7;;;3.8;65.4
54439;BME280;40347;53.848;27.498;2024-02-16T21:49:08;1021.7;;;3.7;65.4
54439;BME280;40347;53.848;27.498;2024-02-16T21:54:16;1021.7;;;3.7;65.5
54439;BME280;40347;53.848;27.498;2024-02-16T21:59:16;1021.7;;;3.7;65.4
54439;BME280;40347;53.848;27.498;2024-02-16T22:04:28;1021.6;;;3.7;65.6
54439;BME280;40347;53.848;27.498;2024-02-16T22:09:22;1021.5;;;3.7;65.5
54439;BME280;40347;53.848;27.498;2024-02-16T22:14:26;1021.5;;;3.7;65.7
54439;BME280;40347;53.848;27.498;2024-02-16T22:19:16;1021.5;;;3.7;65.8
54439;BME280;40347;53.848;27.498;2024-02-16T22:24:26;1021.5;;;3.7;65.7
54439;BME280;40347;53.848;27.498;2024-02-16T22:29:08;1021.5;;;3.8;65.8
54439;BME280;40347;53.848;27.498;2024-02-16T22:34:38;1021.5;;;3.8;65.9
54439;BME280;40347;53.848;27.498;2024-02-16T22:39:16;1021.4;;;3.8;66
54439;BME280;40347;53.848;27.498;2024-02-16T22:44:20;1021.4;;;3.8;66
54439;BME280;40347;53.848;27.498;2024-02-16T22:49:26;1021.3;;;3.8;66.1
54439;BME280;40347;53.848;27.498;2024-02-16T22:54:26;1021.3;;;3.7;66.3
54439;BME280;40347;53.848;27.498;2024-02-16T22:59:08;1021.2;;;3.8;66.3
54439;BME280;40347;53.848;27.498;2024-02-16T23:04:08;1021.2;;;3.8;66.3
54439;BME280;40347;53.848;27.498;2024-02-16T23:09:08;1021.2;;;3.8;66.1
54439;BME280;40347;53.848;27.498;2024-02-16T23:14:08;1021.2;;;3.8;66.2
54439;BME280;40347;53.848;27.498;2024-02-16T23:19:26;1021.2;;;3.7;66.2
54439;BME280;40347;53.848;27.498;2024-02-16T23:24:16;1021.2;;;3.7;66.2
54439;BME280;40347;53.848;27.498;2024-02-16T23:29:16;1021.2;;;3.7;66.3
54439;BME280;40347;53.848;27.498;2024-02-16T23:34:22;1021.2;;;3.7;66.4
54439;BME280;40347;53.848;27.498;2024-02-16T23:39:36;1021.2;;;3.7;66.4
54439;BME280;40347;53.848;27.498;2024-02-16T23:44:08;1021.2;;;3.7;66.4
54439;BME280;40347;53.848;27.498;2024-02-16T23:49:36;1021.2;;;3.7;66.4
54439;BME280;40347;53.848;27.498;2024-02-16T23:54:30;1021.2;;;3.7;66.5
54439;BME280;40347;53.848;27.498;2024-02-16T23:59:26;1021.1;;;3.7;66.5
